createdAt,value
2023-04-06T00:02:06.544Z,-0.49
2023-04-06T00:04:34.471Z,-0.37
2023-04-06T00:07:03.710Z,-0.68
2023-04-06T00:09:31.731Z,-0.54
2023-04-06T00:11:59.882Z,-0.54
2023-04-06T00:14:27.860Z,-0.43
2023-04-06T00:16:55.843Z,-0.46
2023-04-06T00:19:23.825Z,-0.49
2023-04-06T00:21:51.715Z,-0.50
2023-04-06T00:24:21.378Z,-0.51
2023-04-06T00:26:49.334Z,-0.68
2023-04-06T00:29:17.286Z,-0.52
2023-04-06T00:31:45.459Z,-0.51
2023-04-06T00:34:13.500Z,-0.51
2023-04-06T00:36:41.781Z,-0.53
2023-04-06T00:39:09.986Z,-1.07
2023-04-06T00:41:40.477Z,-0.55
2023-04-06T00:44:08.666Z,-0.54
2023-04-06T00:46:37.789Z,-0.56
2023-04-06T00:49:06.305Z,-0.57
2023-04-06T00:51:34.597Z,-0.57
2023-04-06T00:54:02.572Z,-0.58
2023-04-06T00:56:30.659Z,-0.60
2023-04-06T00:59:00.416Z,-0.59
2023-04-06T01:01:29.861Z,-0.59
2023-04-06T01:03:57.860Z,-0.86
2023-04-06T01:06:25.830Z,-0.62
2023-04-06T01:08:53.844Z,-0.75
2023-04-06T01:11:22.001Z,-0.78
2023-04-06T01:13:50.368Z,-1.25
2023-04-06T01:16:19.876Z,-1.09
2023-04-06T01:18:47.898Z,-1.02
2023-04-06T01:21:17.364Z,-0.68
2023-04-06T01:23:47.888Z,-0.67
2023-04-06T01:26:16.232Z,-0.80
2023-04-06T01:28:45.301Z,-0.71
2023-04-06T01:31:13.405Z,-0.71
2023-04-06T01:33:41.462Z,-0.69
2023-04-06T01:36:09.772Z,-1.02
2023-04-06T01:38:37.763Z,-0.59
2023-04-06T01:41:07.132Z,-1.53
2023-04-06T01:43:35.062Z,-0.77
2023-04-06T01:46:03.211Z,-0.47
2023-04-06T01:48:31.225Z,-0.42
2023-04-06T01:50:59.042Z,-0.36
2023-04-06T01:53:27.164Z,-0.47
2023-04-06T01:55:55.076Z,-0.24
2023-04-06T01:58:24.272Z,-0.27
2023-04-06T02:00:52.391Z,-1.04
2023-04-06T02:03:20.348Z,-0.08
2023-04-06T02:05:48.248Z,-0.20
2023-04-06T02:08:16.366Z,-0.48
2023-04-06T02:10:44.354Z,0.05
2023-04-06T02:13:12.200Z,0.08
2023-04-06T02:15:41.635Z,0.11
2023-04-06T02:18:10.648Z,-0.10
2023-04-06T02:20:38.733Z,-0.35
2023-04-06T02:23:06.814Z,0.21
2023-04-06T02:25:34.776Z,0.23
2023-04-06T02:28:02.605Z,0.24
2023-04-06T02:30:30.671Z,0.27
2023-04-06T02:33:00.032Z,0.29
2023-04-06T02:35:27.981Z,0.30
2023-04-06T02:37:56.071Z,0.31
2023-04-06T02:40:24.087Z,0.35
2023-04-06T02:42:53.183Z,0.36
2023-04-06T02:45:21.537Z,0.37
2023-04-06T02:47:49.536Z,0.40
2023-04-06T02:50:18.765Z,-0.22
2023-04-06T02:52:46.776Z,0.40
2023-04-06T02:55:14.968Z,0.41
2023-04-06T02:57:42.828Z,-0.07
2023-04-06T03:00:12.348Z,-0.20
2023-04-06T03:02:40.637Z,0.45
2023-04-06T03:05:09.039Z,0.48
2023-04-06T03:07:38.411Z,0.48
2023-04-06T03:10:07.356Z,0.14
2023-04-06T03:12:35.224Z,0.47
2023-04-06T03:15:03.350Z,0.49
2023-04-06T03:17:31.435Z,-0.02
2023-04-06T03:19:59.301Z,0.51
2023-04-06T03:22:27.275Z,0.27
2023-04-06T03:24:56.668Z,0.52
2023-04-06T03:27:24.636Z,0.53
2023-04-06T03:29:52.650Z,0.55
2023-04-06T03:32:20.674Z,0.55
2023-04-06T03:34:48.522Z,0.56
2023-04-06T03:37:16.512Z,0.57
2023-04-06T03:39:44.583Z,0.44
2023-04-06T03:42:13.960Z,0.18
2023-04-06T03:44:42.004Z,0.44
2023-04-06T03:47:09.937Z,0.58
2023-04-06T03:49:40.417Z,0.60
2023-04-06T03:52:08.611Z,0.61
2023-04-06T03:54:37.275Z,0.58
2023-04-06T03:57:06.093Z,0.58
2023-04-06T03:59:35.540Z,0.41
2023-04-06T04:02:03.560Z,0.25
2023-04-06T04:04:31.534Z,0.67
2023-04-06T04:06:59.567Z,0.68
2023-04-06T04:09:29.712Z,0.70
2023-04-06T04:11:57.834Z,0.69
2023-04-06T04:14:26.595Z,-0.16
2023-04-06T04:16:55.942Z,0.69
2023-04-06T04:19:23.822Z,0.72
2023-04-06T04:21:51.794Z,0.74
2023-04-06T04:24:19.762Z,0.72
2023-04-06T04:26:47.599Z,0.76
2023-04-06T04:29:16.703Z,0.61
2023-04-06T04:31:44.725Z,0.78
2023-04-06T04:34:14.090Z,0.59
2023-04-06T04:36:43.229Z,0.79
2023-04-06T04:39:11.145Z,0.56
2023-04-06T04:41:39.066Z,0.83
2023-04-06T04:44:07.065Z,0.85
2023-04-06T04:46:34.988Z,0.90
2023-04-06T04:49:02.825Z,0.92
2023-04-06T04:51:32.956Z,0.94
2023-04-06T04:54:00.902Z,0.96
2023-04-06T04:56:29.867Z,0.98
2023-04-06T04:58:57.956Z,1.03
2023-04-06T05:01:26.144Z,1.04
2023-04-06T05:03:54.159Z,0.91
2023-04-06T05:06:22.301Z,1.09
2023-04-06T05:08:51.589Z,0.82
2023-04-06T05:11:19.576Z,0.79
2023-04-06T05:13:47.642Z,1.19
2023-04-06T05:16:15.951Z,1.22
2023-04-06T05:18:43.943Z,1.27
2023-04-06T05:21:13.118Z,1.02
2023-04-06T05:23:41.048Z,1.35
2023-04-06T05:26:10.296Z,1.40
2023-04-06T05:28:38.342Z,1.45
2023-04-06T05:31:06.683Z,1.13
2023-04-06T05:33:34.677Z,1.24
2023-04-06T05:36:02.958Z,1.58
2023-04-06T05:38:31.126Z,1.61
2023-04-06T05:40:59.261Z,1.51
2023-04-06T05:43:28.621Z,1.70
2023-04-06T05:45:56.574Z,1.74
2023-04-06T05:48:24.514Z,1.78
2023-04-06T05:50:52.955Z,1.83
2023-04-06T05:53:22.068Z,1.01
2023-04-06T05:55:49.926Z,1.93
2023-04-06T05:58:18.361Z,1.81
2023-04-06T06:00:48.082Z,1.29
2023-04-06T06:03:16.398Z,1.85
2023-04-06T06:05:44.462Z,2.04
2023-04-06T06:08:12.444Z,2.10
2023-04-06T06:10:44.038Z,2.20
2023-04-06T06:13:12.554Z,1.50
2023-04-06T06:15:40.558Z,2.32
2023-04-06T06:18:09.853Z,2.36
2023-04-06T06:20:37.850Z,2.35
2023-04-06T06:23:05.857Z,2.48
2023-04-06T06:25:34.406Z,2.11
2023-04-06T06:28:02.475Z,2.46
2023-04-06T06:30:30.920Z,2.64
2023-04-06T06:32:58.945Z,2.62
2023-04-06T06:35:28.461Z,2.71
2023-04-06T06:37:56.723Z,2.72
2023-04-06T06:40:25.401Z,2.65
2023-04-06T06:42:53.425Z,2.86
2023-04-06T06:45:21.590Z,2.96
2023-04-06T06:47:49.555Z,2.78
2023-04-06T06:50:17.616Z,3.06
2023-04-06T06:52:47.112Z,3.12
2023-04-06T06:55:15.005Z,3.23
2023-04-06T06:57:43.588Z,3.31
2023-04-06T07:00:13.513Z,3.32
2023-04-06T07:02:41.960Z,3.20
2023-04-06T07:05:24.312Z,3.64
2023-04-06T07:07:57.151Z,3.70
2023-04-06T07:10:25.464Z,3.77
2023-04-06T07:12:53.306Z,3.84
2023-04-06T07:15:21.277Z,3.93
2023-04-06T07:17:49.319Z,4.05
2023-04-06T07:20:17.375Z,4.17
2023-04-06T07:22:46.056Z,4.26
2023-04-06T07:25:15.503Z,4.36
2023-04-06T07:27:43.409Z,4.44
2023-04-06T07:30:11.917Z,4.53
2023-04-06T07:32:40.092Z,4.63
2023-04-06T07:35:08.398Z,4.71
2023-04-06T07:37:36.539Z,4.85
2023-04-06T07:40:04.498Z,5.00
2023-04-06T07:42:34.176Z,5.12
2023-04-06T07:45:02.258Z,5.22
2023-04-06T07:47:30.175Z,5.32
2023-04-06T07:49:58.110Z,5.29
2023-04-06T07:52:26.118Z,5.47
2023-04-06T07:54:54.081Z,5.54
2023-04-06T07:57:21.909Z,5.58
2023-04-06T07:59:51.408Z,5.60
2023-04-06T08:02:19.621Z,5.54
2023-04-06T08:04:47.649Z,5.71
2023-04-06T08:07:15.719Z,5.75
2023-04-06T08:09:43.657Z,5.73
2023-04-06T08:12:11.526Z,5.83
2023-04-06T08:14:39.538Z,6.01
2023-04-06T08:17:09.406Z,6.05
2023-04-06T08:19:38.502Z,5.96
2023-04-06T08:22:06.473Z,6.47
2023-04-06T08:24:34.793Z,6.38
2023-04-06T08:27:02.703Z,6.82
2023-04-06T08:29:30.561Z,6.66
2023-04-06T08:31:58.890Z,6.73
2023-04-06T08:34:28.147Z,6.52
2023-04-06T08:36:56.007Z,6.23
2023-04-06T08:39:26.681Z,5.60
2023-04-06T08:41:58.015Z,5.77
2023-04-06T08:44:26.384Z,5.70
2023-04-06T08:46:54.662Z,5.66
2023-04-06T08:49:23.269Z,5.74
2023-04-06T08:51:53.336Z,6.21
2023-04-06T08:54:21.302Z,6.42
2023-04-06T08:56:50.636Z,6.57
2023-04-06T08:59:18.724Z,6.64
2023-04-06T09:01:47.873Z,6.67
2023-04-06T09:04:16.437Z,6.64
2023-04-06T09:06:45.097Z,6.61
2023-04-06T09:09:14.392Z,6.41
2023-04-06T09:11:46.719Z,6.46
2023-04-06T09:14:14.812Z,5.96
2023-04-06T09:16:43.679Z,6.38
2023-04-06T09:19:11.856Z,6.10
2023-04-06T09:21:40.981Z,6.31
2023-04-06T09:24:10.735Z,6.24
2023-04-06T09:26:49.884Z,6.11
2023-04-06T09:29:28.411Z,6.36
2023-04-06T09:32:04.839Z,6.37
2023-04-06T09:34:33.110Z,6.38
2023-04-06T09:37:01.155Z,6.53
2023-04-06T09:39:29.107Z,6.50
2023-04-06T09:41:58.542Z,6.77
2023-04-06T09:44:27.086Z,6.95
2023-04-06T09:47:00.798Z,6.96
2023-04-06T09:49:32.614Z,7.13
2023-04-06T09:52:03.781Z,6.91
2023-04-06T09:54:33.319Z,6.87
2023-04-06T09:57:09.903Z,6.83
2023-04-06T09:59:47.019Z,6.93
2023-04-06T10:02:26.664Z,6.81
2023-04-06T10:05:01.196Z,7.06
2023-04-06T10:07:29.473Z,7.52
2023-04-06T10:09:57.943Z,7.65
2023-04-06T10:12:27.211Z,7.68
2023-04-06T10:14:55.988Z,7.63
2023-04-06T10:17:25.373Z,7.24
2023-04-06T10:19:57.439Z,7.54
2023-04-06T10:22:31.783Z,7.45
2023-04-06T10:25:00.749Z,7.39
2023-04-06T10:27:34.766Z,7.57
2023-04-06T10:30:07.462Z,7.49
2023-04-06T10:32:37.912Z,7.44
2023-04-06T10:35:10.287Z,7.45
2023-04-06T10:37:53.325Z,7.46
2023-04-06T10:40:23.935Z,7.70
2023-04-06T10:42:53.808Z,7.67
2023-04-06T10:45:22.793Z,7.46
2023-04-06T10:47:51.336Z,7.55
2023-04-06T10:50:19.788Z,7.68
2023-04-06T10:52:48.358Z,7.51
2023-04-06T10:55:17.833Z,7.76
2023-04-06T10:57:48.633Z,7.91
2023-04-06T11:00:19.227Z,7.57
2023-04-06T11:02:47.456Z,7.83
2023-04-06T11:05:15.336Z,8.21
2023-04-06T11:07:43.736Z,8.34
2023-04-06T11:10:17.590Z,8.40
2023-04-06T11:12:47.322Z,8.10
2023-04-06T11:15:15.539Z,8.26
2023-04-06T11:17:46.049Z,8.39
2023-04-06T11:20:14.478Z,8.54
2023-04-06T11:22:50.833Z,8.64
2023-04-06T11:25:19.201Z,8.20
2023-04-06T11:27:48.539Z,8.81
2023-04-06T11:30:16.740Z,8.87
2023-04-06T11:32:47.711Z,8.95
2023-04-06T11:35:22.388Z,8.94
2023-04-06T11:37:51.093Z,8.97
2023-04-06T11:40:23.445Z,8.28
2023-04-06T11:42:55.263Z,8.90
2023-04-06T11:45:23.738Z,8.46
2023-04-06T11:48:00.610Z,8.79
2023-04-06T11:50:36.161Z,8.66
2023-04-06T11:53:04.903Z,9.05
2023-04-06T11:55:39.839Z,9.04
2023-04-06T11:58:08.374Z,9.32
2023-04-06T12:00:38.139Z,9.63
2023-04-06T12:03:07.467Z,9.75
2023-04-06T12:05:36.227Z,9.67
2023-04-06T12:08:04.363Z,9.47
2023-04-06T12:10:32.539Z,9.71
2023-04-06T12:13:00.539Z,9.54
2023-04-06T12:15:28.604Z,9.41
2023-04-06T12:17:56.552Z,9.24
2023-04-06T12:20:27.446Z,9.12
2023-04-06T12:22:55.765Z,9.01
2023-04-06T12:25:23.570Z,8.83
2023-04-06T12:27:51.724Z,8.90
2023-04-06T12:30:19.775Z,8.96
2023-04-06T12:32:50.431Z,8.91
2023-04-06T12:35:19.374Z,8.84
2023-04-06T12:37:48.659Z,8.66
2023-04-06T12:40:16.552Z,8.58
2023-04-06T12:42:44.442Z,8.35
2023-04-06T12:45:13.044Z,8.25
2023-04-06T12:47:40.916Z,8.34
2023-04-06T12:50:09.749Z,8.40
2023-04-06T12:52:37.714Z,8.35
2023-04-06T12:55:07.899Z,8.41
2023-04-06T12:57:36.093Z,8.36
2023-04-06T13:00:05.562Z,8.32
2023-04-06T13:02:35.112Z,8.54
2023-04-06T13:05:03.208Z,9.07
2023-04-06T13:07:31.129Z,9.54
2023-04-06T13:09:59.138Z,10.09
2023-04-06T13:12:28.519Z,10.54
2023-04-06T13:14:56.862Z,11.58
2023-04-06T13:17:24.809Z,11.73
2023-04-06T13:19:52.758Z,12.32
2023-04-06T13:22:20.851Z,13.46
2023-04-06T13:24:48.713Z,13.68
2023-04-06T13:27:16.736Z,13.26
2023-04-06T13:29:46.018Z,12.33
2023-04-06T13:32:14.010Z,12.11
2023-04-06T13:34:45.935Z,11.51
2023-04-06T13:37:14.973Z,11.20
2023-04-06T13:39:42.760Z,11.06
2023-04-06T13:42:11.294Z,10.83
2023-04-06T13:44:39.324Z,10.56
2023-04-06T13:47:08.568Z,10.30
2023-04-06T13:49:37.040Z,9.93
2023-04-06T13:52:05.451Z,9.67
2023-04-06T13:54:33.284Z,9.53
2023-04-06T13:57:01.632Z,9.52
2023-04-06T13:59:35.125Z,9.53
2023-04-06T14:02:03.969Z,9.71
2023-04-06T14:04:33.969Z,10.02
2023-04-06T14:07:02.922Z,10.26
2023-04-06T14:09:31.730Z,10.40
2023-04-06T14:11:59.738Z,10.45
2023-04-06T14:14:28.364Z,9.70
2023-04-06T14:16:56.807Z,10.64
2023-04-06T14:19:24.840Z,11.32
2023-04-06T14:21:54.651Z,12.19
2023-04-06T14:24:22.929Z,13.07
2023-04-06T14:26:50.937Z,13.64
2023-04-06T14:29:18.756Z,14.23
2023-04-06T14:31:48.027Z,14.84
2023-04-06T14:34:16.093Z,15.36
2023-04-06T14:36:44.121Z,15.67
2023-04-06T14:39:13.481Z,15.61
2023-04-06T14:41:41.909Z,15.41
2023-04-06T14:44:13.207Z,15.32
2023-04-06T14:46:41.236Z,15.50
2023-04-06T14:49:10.009Z,15.43
2023-04-06T14:51:37.970Z,15.43
2023-04-06T14:54:06.028Z,15.30
2023-04-06T14:56:35.566Z,15.40
2023-04-06T14:59:04.073Z,15.54
2023-04-06T15:01:32.140Z,15.05
2023-04-06T15:04:00.690Z,14.57
2023-04-06T15:06:28.685Z,14.27
2023-04-06T15:08:56.531Z,13.97
2023-04-06T15:11:24.633Z,13.37
2023-04-06T15:13:53.856Z,12.89
2023-04-06T15:16:21.809Z,12.13
2023-04-06T15:18:50.170Z,11.75
2023-04-06T15:21:20.868Z,11.05
2023-04-06T15:23:49.056Z,10.47
2023-04-06T15:26:18.140Z,9.98
2023-04-06T15:28:46.044Z,9.46
2023-04-06T15:31:35.963Z,9.00
2023-04-06T15:34:05.176Z,8.38
2023-04-06T15:36:33.428Z,8.04
2023-04-06T15:39:01.799Z,8.24
2023-04-06T15:41:29.639Z,7.96
2023-04-06T15:43:57.766Z,7.72
2023-04-06T15:46:28.293Z,7.62
2023-04-06T15:48:56.974Z,7.47
2023-04-06T15:51:26.472Z,7.34
2023-04-06T15:53:54.393Z,7.25
2023-04-06T15:56:22.269Z,7.21
2023-04-06T15:58:50.249Z,7.12
2023-04-06T16:01:19.591Z,7.11
2023-04-06T16:03:48.986Z,7.12
2023-04-06T16:06:17.190Z,6.79
2023-04-06T16:08:45.160Z,7.21
2023-04-06T16:11:13.736Z,6.87
2023-04-06T16:13:44.969Z,7.20
2023-04-06T16:16:15.058Z,7.15
2023-04-06T16:18:43.193Z,6.65
2023-04-06T16:21:16.404Z,7.08
2023-04-06T16:23:45.691Z,6.99
2023-04-06T16:26:14.294Z,6.79
2023-04-06T16:28:42.639Z,6.67
2023-04-06T16:31:19.164Z,6.53
2023-04-06T16:33:47.140Z,6.33
2023-04-06T16:36:16.721Z,5.97
2023-04-06T16:38:44.801Z,6.03
2023-04-06T16:41:12.675Z,6.06
2023-04-06T16:43:40.641Z,6.00
2023-04-06T16:46:08.915Z,5.91
2023-04-06T16:48:36.816Z,5.79
2023-04-06T16:51:05.887Z,5.54
2023-04-06T16:53:35.690Z,4.12
2023-04-06T16:56:05.104Z,5.63
2023-04-06T16:58:33.327Z,5.52
2023-04-06T17:01:01.915Z,4.99
2023-04-06T17:03:30.850Z,5.37
2023-04-06T17:05:59.053Z,4.79
2023-04-06T17:08:27.032Z,5.16
2023-04-06T17:11:02.715Z,5.10
2023-04-06T17:13:31.868Z,5.01
2023-04-06T17:16:00.582Z,4.93
2023-04-06T17:18:30.070Z,4.81
2023-04-06T17:20:58.486Z,4.75
2023-04-06T17:23:27.065Z,4.58
2023-04-06T17:25:57.907Z,4.66
2023-04-06T17:28:26.321Z,4.59
2023-04-06T17:30:54.399Z,4.56
2023-04-06T17:33:22.239Z,4.52
2023-04-06T17:35:50.279Z,4.38
2023-04-06T17:38:18.159Z,4.10
2023-04-06T17:40:45.988Z,4.44
2023-04-06T17:43:15.198Z,4.40
2023-04-06T17:45:43.140Z,4.38
2023-04-06T17:48:11.222Z,4.31
2023-04-06T17:50:40.115Z,4.09
2023-04-06T17:53:08.512Z,4.18
2023-04-06T17:55:36.663Z,4.14
2023-04-06T17:58:04.924Z,4.12
2023-04-06T18:00:34.223Z,3.69
2023-04-06T18:03:02.349Z,3.88
2023-04-06T18:05:30.564Z,3.77
2023-04-06T18:08:00.671Z,3.74
2023-04-06T18:10:28.637Z,3.95
2023-04-06T18:12:56.876Z,3.93
2023-04-06T18:15:24.844Z,3.87
2023-04-06T18:17:54.154Z,3.77
2023-04-06T18:20:22.299Z,3.75
2023-04-06T18:25:18.735Z,3.70
2023-04-06T18:27:46.730Z,3.39
2023-04-06T18:30:17.663Z,3.58
2023-04-06T18:32:45.578Z,3.37
2023-04-06T18:35:15.068Z,3.52
2023-04-06T18:37:43.009Z,3.50
2023-04-06T18:40:31.854Z,3.50
2023-04-06T18:42:59.768Z,3.07
2023-04-06T18:45:27.828Z,3.46
2023-04-06T18:47:57.327Z,3.45
2023-04-06T18:50:27.225Z,3.43
2023-04-06T18:52:55.379Z,3.42
2023-04-06T18:55:23.519Z,2.88
2023-04-06T18:57:51.379Z,3.40
2023-04-06T19:00:19.762Z,3.39
2023-04-06T19:02:48.019Z,2.75
2023-04-06T19:05:16.604Z,3.17
2023-04-06T19:07:50.719Z,3.26
2023-04-06T19:10:18.807Z,3.20
2023-04-06T19:12:47.751Z,2.59
2023-04-06T19:15:15.827Z,2.99
2023-04-06T19:17:44.225Z,3.23
2023-04-06T19:20:12.688Z,3.21
2023-04-06T19:22:40.749Z,3.19
2023-04-06T19:25:10.977Z,3.18
2023-04-06T19:27:39.287Z,3.15
2023-04-06T19:30:09.952Z,3.15
2023-04-06T19:32:37.960Z,3.15
2023-04-06T19:35:08.662Z,2.63
2023-04-06T19:37:37.865Z,3.14
2023-04-06T19:40:10.442Z,3.15
2023-04-06T19:42:39.887Z,2.52
2023-04-06T19:45:08.995Z,3.11
2023-04-06T19:47:36.893Z,3.10
2023-04-06T19:50:05.678Z,3.06
2023-04-06T19:52:33.784Z,2.77
2023-04-06T19:55:01.612Z,2.56
2023-04-06T19:57:29.476Z,3.08
2023-04-06T19:59:58.853Z,2.98
2023-04-06T20:02:27.165Z,3.01
2023-04-06T20:04:55.214Z,2.75
2023-04-06T20:07:23.280Z,2.96
2023-04-06T20:09:51.672Z,2.91
2023-04-06T20:12:19.893Z,2.87
2023-04-06T20:14:47.880Z,2.36
2023-04-06T20:17:17.159Z,2.20
2023-04-06T20:19:45.126Z,2.65
2023-04-06T20:22:13.072Z,2.88
2023-04-06T20:24:40.930Z,2.53
2023-04-06T20:27:08.838Z,2.84
2023-04-06T20:29:36.811Z,2.06
2023-04-06T20:32:04.776Z,2.79
2023-04-06T20:34:34.076Z,2.59
2023-04-06T20:37:01.959Z,2.67
2023-04-06T20:39:30.737Z,2.80
2023-04-06T20:41:58.773Z,2.79
2023-04-06T20:44:26.769Z,2.80
2023-04-06T20:46:55.112Z,2.26
2023-04-06T20:49:24.186Z,2.63
2023-04-06T20:51:53.560Z,2.76
2023-04-06T20:54:21.603Z,2.60
2023-04-06T20:56:49.683Z,2.76
2023-04-06T20:59:17.609Z,2.73
2023-04-06T21:01:45.600Z,2.35
2023-04-06T21:04:13.812Z,2.73
2023-04-06T21:06:42.037Z,2.76
2023-04-06T21:09:11.323Z,2.79
2023-04-06T21:11:39.199Z,2.67
2023-04-06T21:14:07.474Z,2.76
2023-04-06T21:16:35.590Z,2.74
2023-04-06T21:19:03.637Z,2.63
2023-04-06T21:21:31.712Z,2.73
2023-04-06T21:24:00.328Z,2.73
2023-04-06T21:26:29.913Z,2.73
2023-04-06T21:28:57.954Z,2.40
2023-04-06T21:31:25.930Z,2.71
2023-04-06T21:33:54.047Z,1.93
2023-04-06T21:36:22.190Z,2.60
2023-04-06T21:38:50.045Z,2.11
2023-04-06T21:41:18.035Z,2.26
2023-04-06T21:43:47.378Z,2.60
2023-04-06T21:46:15.294Z,2.63
2023-04-06T21:48:43.393Z,2.40
2023-04-06T21:51:17.835Z,2.57
2023-04-06T21:53:45.946Z,2.55
2023-04-06T21:56:14.008Z,2.57
2023-04-06T21:58:42.086Z,2.60
2023-04-06T22:01:12.841Z,2.49
2023-04-06T22:03:40.969Z,2.64
2023-04-06T22:06:09.357Z,2.61
2023-04-06T22:08:37.735Z,2.61
2023-04-06T22:11:09.269Z,2.50
2023-04-06T22:13:37.643Z,2.63
2023-04-06T22:16:06.972Z,2.64
2023-04-06T22:18:38.910Z,2.65
2023-04-06T22:21:07.634Z,2.67
2023-04-06T22:23:41.978Z,2.65
2023-04-06T22:26:10.770Z,2.36
2023-04-06T22:28:38.900Z,2.46
2023-04-06T22:31:06.917Z,2.61
2023-04-06T22:33:36.322Z,2.03
2023-04-06T22:36:04.356Z,2.61
2023-04-06T22:38:32.278Z,2.22
2023-04-06T22:41:00.305Z,2.51
2023-04-06T22:43:28.127Z,2.34
2023-04-06T22:45:56.190Z,2.26
2023-04-06T22:48:24.652Z,1.93
2023-04-06T22:50:54.267Z,2.57
2023-04-06T22:53:22.075Z,2.58
2023-04-06T22:55:50.190Z,2.58
2023-04-06T22:58:18.016Z,2.58
2023-04-06T23:00:45.985Z,2.57
2023-04-06T23:03:14.262Z,2.56
2023-04-06T23:05:42.332Z,1.93
2023-04-06T23:08:11.702Z,2.53
2023-04-06T23:10:42.203Z,2.49
2023-04-06T23:13:10.195Z,1.78
2023-04-06T23:15:38.100Z,2.18
2023-04-06T23:18:06.395Z,2.45
2023-04-06T23:20:34.238Z,1.92
2023-04-06T23:23:02.140Z,2.30
2023-04-06T23:25:31.579Z,2.38
2023-04-06T23:27:59.430Z,2.25
2023-04-06T23:30:27.248Z,2.22
2023-04-06T23:32:55.306Z,2.35
2023-04-06T23:35:23.207Z,2.33
2023-04-06T23:37:51.128Z,2.32
2023-04-06T23:40:19.490Z,2.29
2023-04-06T23:42:48.673Z,2.31
2023-04-06T23:45:16.705Z,2.17
2023-04-06T23:47:46.025Z,2.25
2023-04-06T23:50:14.077Z,2.30
2023-04-06T23:52:42.116Z,1.89
2023-04-06T23:55:10.993Z,2.25
2023-04-06T23:57:38.826Z,2.25
